sensor_id;sensor_type;location;lat;lon;timestamp;P1;durP1;ratioP1;P2;durP2;ratioP2
15151;SDS011;7676;50.900;6.234;2023-06-04T00:02:31;2.60;;;1.80;;
15151;SDS011;7676;50.900;6.234;2023-06-04T00:17:34;3.20;;;1.80;;
15151;SDS011;7676;50.900;6.234;2023-06-04T00:32:37;3.23;;;1.53;;
15151;SDS011;7676;50.900;6.234;2023-06-04T00:47:39;3.20;;;1.70;;
15151;SDS011;7676;50.900;6.234;2023-06-04T01:02:43;3.67;;;1.70;;
15151;SDS011;7676;50.900;6.234;2023-06-04T01:18:00;3.50;;;1.20;;
15151;SDS011;7676;50.900;6.234;2023-06-04T01:33:08;3.80;;;1.60;;
15151;SDS011;7676;50.900;6.234;2023-06-04T01:48:12;3.33;;;1.53;;
15151;SDS011;7676;50.900;6.234;2023-06-04T02:03:14;2.10;;;1.30;;
15151;SDS011;7676;50.900;6.234;2023-06-04T02:18:18;2.70;;;1.37;;
15151;SDS011;7676;50.900;6.234;2023-06-04T02:33:26;3.70;;;1.60;;
15151;SDS011;7676;50.900;6.234;2023-06-04T02:48:29;1.73;;;1.63;;
15151;SDS011;7676;50.900;6.234;2023-06-04T03:03:31;2.33;;;1.67;;
15151;SDS011;7676;50.900;6.234;2023-06-04T03:18:39;2.40;;;1.70;;
15151;SDS011;7676;50.900;6.234;2023-06-04T03:33:42;2.20;;;1.77;;
15151;SDS011;7676;50.900;6.234;2023-06-04T03:48:44;3.23;;;1.97;;
15151;SDS011;7676;50.900;6.234;2023-06-04T04:03:47;2.73;;;2.07;;
15151;SDS011;7676;50.900;6.234;2023-06-04T04:18:51;2.77;;;1.93;;
15151;SDS011;7676;50.900;6.234;2023-06-04T04:33:57;4.27;;;2.40;;
15151;SDS011;7676;50.900;6.234;2023-06-04T04:49:00;3.30;;;2.30;;
15151;SDS011;7676;50.900;6.234;2023-06-04T05:04:03;2.50;;;2.20;;
15151;SDS011;7676;50.900;6.234;2023-06-04T05:19:10;3.87;;;2.20;;
15151;SDS011;7676;50.900;6.234;2023-06-04T05:34:14;3.40;;;2.23;;
15151;SDS011;7676;50.900;6.234;2023-06-04T05:49:20;3.17;;;2.20;;
15151;SDS011;7676;50.900;6.234;2023-06-04T06:04:28;3.57;;;2.40;;
15151;SDS011;7676;50.900;6.234;2023-06-04T06:19:31;3.97;;;2.67;;
15151;SDS011;7676;50.900;6.234;2023-06-04T06:34:36;2.53;;;2.20;;
15151;SDS011;7676;50.900;6.234;2023-06-04T06:49:41;2.93;;;2.40;;
15151;SDS011;7676;50.900;6.234;2023-06-04T07:04:44;2.27;;;2.07;;
15151;SDS011;7676;50.900;6.234;2023-06-04T07:19:47;3.33;;;2.07;;
15151;SDS011;7676;50.900;6.234;2023-06-04T07:34:49;2.67;;;2.13;;
15151;SDS011;7676;50.900;6.234;2023-06-04T07:49:52;2.83;;;2.00;;
15151;SDS011;7676;50.900;6.234;2023-06-04T08:05:04;3.67;;;2.00;;
15151;SDS011;7676;50.900;6.234;2023-06-04T08:20:07;2.17;;;1.67;;
15151;SDS011;7676;50.900;6.234;2023-06-04T08:35:13;2.87;;;2.13;;
15151;SDS011;7676;50.900;6.234;2023-06-04T08:50:22;4.00;;;1.90;;
15151;SDS011;7676;50.900;6.234;2023-06-04T09:06:48;2.40;;;1.90;;
15151;SDS011;7676;50.900;6.234;2023-06-04T09:23:17;2.77;;;1.80;;
15151;SDS011;7676;50.900;6.234;2023-06-04T09:39:42;2.57;;;1.80;;
15151;SDS011;7676;50.900;6.234;2023-06-04T09:56:40;2.77;;;1.40;;
15151;SDS011;7676;50.900;6.234;2023-06-04T10:48:54;2.23;;;1.30;;
15151;SDS011;7676;50.900;6.234;2023-06-04T11:03:58;4.63;;;2.03;;
15151;SDS011;7676;50.900;6.234;2023-06-04T11:19:00;1.83;;;1.63;;
15151;SDS011;7676;50.900;6.234;2023-06-04T11:34:04;1.80;;;1.50;;
15151;SDS011;7676;50.900;6.234;2023-06-04T11:49:07;3.73;;;1.63;;
15151;SDS011;7676;50.900;6.234;2023-06-04T12:19:17;3.23;;;1.60;;
15151;SDS011;7676;50.900;6.234;2023-06-04T12:34:19;1.40;;;1.30;;
15151;SDS011;7676;50.900;6.234;2023-06-04T12:49:22;4.43;;;1.73;;
15151;SDS011;7676;50.900;6.234;2023-06-04T13:04:24;2.83;;;1.63;;
15151;SDS011;7676;50.900;6.234;2023-06-04T13:19:27;1.97;;;1.57;;
15151;SDS011;7676;50.900;6.234;2023-06-04T13:34:30;2.30;;;1.67;;
15151;SDS011;7676;50.900;6.234;2023-06-04T13:49:34;3.57;;;1.97;;
15151;SDS011;7676;50.900;6.234;2023-06-04T14:04:36;2.43;;;1.80;;
15151;SDS011;7676;50.900;6.234;2023-06-04T14:19:39;2.30;;;2.10;;
15151;SDS011;7676;50.900;6.234;2023-06-04T14:34:42;2.10;;;1.80;;
15151;SDS011;7676;50.900;6.234;2023-06-04T14:49:45;3.83;;;1.67;;
15151;SDS011;7676;50.900;6.234;2023-06-04T15:04:47;2.80;;;1.80;;
15151;SDS011;7676;50.900;6.234;2023-06-04T15:19:50;1.70;;;1.50;;
15151;SDS011;7676;50.900;6.234;2023-06-04T15:34:52;2.23;;;1.60;;
15151;SDS011;7676;50.900;6.234;2023-06-04T15:49:56;2.70;;;1.80;;
15151;SDS011;7676;50.900;6.234;2023-06-04T16:04:58;1.63;;;1.50;;
15151;SDS011;7676;50.900;6.234;2023-06-04T16:20:03;2.23;;;1.70;;
15151;SDS011;7676;50.900;6.234;2023-06-04T16:35:05;2.33;;;2.03;;
15151;SDS011;7676;50.900;6.234;2023-06-04T16:50:11;3.03;;;2.30;;
15151;SDS011;7676;50.900;6.234;2023-06-04T17:05:14;2.80;;;2.10;;
15151;SDS011;7676;50.900;6.234;2023-06-04T17:20:27;2.27;;;1.80;;
15151;SDS011;7676;50.900;6.234;2023-06-04T17:35:30;2.90;;;2.57;;
15151;SDS011;7676;50.900;6.234;2023-06-04T17:50:32;2.47;;;2.20;;
15151;SDS011;7676;50.900;6.234;2023-06-04T18:05:35;4.80;;;2.17;;
15151;SDS011;7676;50.900;6.234;2023-06-04T18:20:37;2.87;;;2.00;;
15151;SDS011;7676;50.900;6.234;2023-06-04T18:35:40;3.40;;;2.10;;
15151;SDS011;7676;50.900;6.234;2023-06-04T18:50:42;2.23;;;2.03;;
15151;SDS011;7676;50.900;6.234;2023-06-04T19:05:50;2.10;;;1.90;;
15151;SDS011;7676;50.900;6.234;2023-06-04T19:20:54;3.77;;;2.30;;
15151;SDS011;7676;50.900;6.234;2023-06-04T19:35:57;2.87;;;2.23;;
15151;SDS011;7676;50.900;6.234;2023-06-04T19:50:59;2.67;;;2.20;;
15151;SDS011;7676;50.900;6.234;2023-06-04T20:06:03;2.83;;;2.00;;
15151;SDS011;7676;50.900;6.234;2023-06-04T20:21:06;3.63;;;1.97;;
15151;SDS011;7676;50.900;6.234;2023-06-04T20:36:08;3.90;;;2.20;;
15151;SDS011;7676;50.900;6.234;2023-06-04T20:51:14;2.83;;;2.20;;
15151;SDS011;7676;50.900;6.234;2023-06-04T21:06:17;2.77;;;1.80;;
15151;SDS011;7676;50.900;6.234;2023-06-04T21:21:20;2.60;;;2.07;;
15151;SDS011;7676;50.900;6.234;2023-06-04T21:36:23;2.13;;;1.90;;
15151;SDS011;7676;50.900;6.234;2023-06-04T21:51:25;2.37;;;2.13;;
15151;SDS011;7676;50.900;6.234;2023-06-04T22:06:28;2.80;;;2.07;;
15151;SDS011;7676;50.900;6.234;2023-06-04T22:21:31;2.77;;;1.57;;
15151;SDS011;7676;50.900;6.234;2023-06-04T22:36:33;2.93;;;2.30;;
15151;SDS011;7676;50.900;6.234;2023-06-04T22:51:37;1.87;;;1.77;;
15151;SDS011;7676;50.900;6.234;2023-06-04T23:06:39;2.27;;;1.70;;
15151;SDS011;7676;50.900;6.234;2023-06-04T23:21:44;2.10;;;1.70;;
15151;SDS011;7676;50.900;6.234;2023-06-04T23:36:47;2.70;;;2.00;;
15151;SDS011;7676;50.900;6.234;2023-06-04T23:51:49;3.33;;;2.17;;
